createdAt,value
2018-04-15T00:00:29.928Z,16.39
2018-04-15T00:01:30.232Z,16.33
2018-04-15T00:02:30.276Z,16.42
2018-04-15T00:03:30.675Z,16.34
2018-04-15T00:04:30.595Z,16.34
2018-04-15T00:05:31.075Z,16.34
2018-04-15T00:06:30.873Z,16.39
2018-04-15T00:07:31.042Z,16.33
2018-04-15T00:08:31.507Z,16.34
2018-04-15T00:09:31.424Z,16.31
2018-04-15T00:10:31.729Z,16.28
2018-04-15T00:11:31.781Z,16.24
2018-04-15T00:12:31.956Z,16.11
2018-04-15T00:13:32.366Z,16.15
2018-04-15T00:14:32.286Z,16.05
2018-04-15T00:15:32.483Z,16.04
2018-04-15T00:16:32.661Z,16.04
2018-04-15T00:17:32.905Z,15.92
2018-04-15T00:18:32.950Z,15.92
2018-04-15T00:19:33.333Z,15.94
2018-04-15T00:20:33.251Z,16.01
2018-04-15T00:21:33.552Z,15.97
2018-04-15T00:22:33.593Z,15.96
2018-04-15T00:23:33.974Z,15.96
2018-04-15T00:24:33.984Z,16.02
2018-04-15T00:25:34.028Z,16.00
2018-04-15T00:26:34.413Z,16.01
2018-04-15T00:27:34.326Z,15.94
2018-04-15T00:28:34.628Z,15.90
2018-04-15T00:29:34.676Z,15.96
2018-04-15T00:30:35.051Z,16.04
2018-04-15T00:31:34.972Z,15.90
2018-04-15T00:32:35.273Z,15.89
2018-04-15T00:33:35.318Z,15.94
2018-04-15T00:34:35.491Z,15.96
2018-04-15T00:35:35.652Z,15.90
2018-04-15T00:36:35.921Z,15.75
2018-04-15T00:37:35.963Z,15.89
2018-04-15T00:38:36.241Z,15.82
2018-04-15T00:39:36.357Z,15.83
2018-04-15T00:40:36.400Z,15.86
2018-04-15T00:41:36.774Z,15.80
2018-04-15T00:42:36.690Z,15.75
2018-04-15T00:43:36.993Z,15.76
2018-04-15T00:44:37.042Z,15.75
2018-04-15T00:45:37.419Z,15.76
2018-04-15T00:46:37.339Z,15.83
2018-04-15T00:47:37.745Z,15.92
2018-04-15T00:48:37.961Z,15.97
2018-04-15T00:49:38.416Z,15.87
2018-04-15T00:50:38.743Z,15.90
2018-04-15T00:51:38.751Z,15.89
2018-04-15T00:52:39.126Z,15.86
2018-04-15T00:53:39.025Z,15.80
2018-04-15T00:54:39.346Z,15.80
2018-04-15T00:55:39.288Z,15.76
2018-04-15T00:56:39.804Z,15.75
2018-04-15T00:57:39.624Z,15.82
2018-04-15T00:58:39.616Z,15.94
2018-04-15T00:59:39.799Z,16.04
2018-04-15T01:00:39.718Z,15.86
2018-04-15T01:01:39.994Z,15.87
2018-04-15T01:02:40.130Z,15.83
2018-04-15T01:03:40.416Z,15.92
2018-04-15T01:04:40.625Z,15.82
2018-04-15T01:05:40.510Z,15.90
2018-04-15T01:06:40.854Z,15.89
2018-04-15T01:07:41.018Z,15.97
2018-04-15T01:08:41.418Z,15.87
2018-04-15T01:09:41.281Z,15.89
2018-04-15T01:10:42.716Z,15.78
2018-04-15T01:11:41.757Z,15.80
2018-04-15T01:12:41.878Z,15.74
2018-04-15T01:13:42.079Z,15.74
2018-04-15T01:14:42.141Z,15.68
2018-04-15T01:15:42.376Z,15.68
2018-04-15T01:16:42.719Z,15.71
2018-04-15T01:17:42.819Z,15.68
2018-04-15T01:18:43.189Z,15.67
2018-04-15T01:19:43.228Z,15.69
2018-04-15T01:20:43.071Z,15.82
2018-04-15T01:21:43.422Z,15.82
2018-04-15T01:22:43.563Z,15.80
2018-04-15T01:23:43.637Z,15.80
2018-04-15T01:24:43.684Z,15.83
2018-04-15T01:25:44.066Z,15.78
2018-04-15T01:26:44.705Z,15.75
2018-04-15T01:27:44.351Z,15.75
2018-04-15T01:28:44.277Z,15.65
2018-04-15T01:29:44.487Z,15.64
2018-04-15T01:30:44.630Z,15.60
2018-04-15T01:31:44.928Z,15.53
2018-04-15T01:32:44.983Z,15.59
2018-04-15T01:33:45.366Z,15.64
2018-04-15T01:34:45.614Z,15.60
2018-04-15T01:35:45.413Z,15.49
2018-04-15T01:36:45.791Z,15.44
2018-04-15T01:37:45.713Z,15.38
2018-04-15T01:38:46.117Z,15.56
2018-04-15T01:39:46.129Z,15.50
2018-04-15T01:40:46.507Z,15.46
2018-04-15T01:41:46.353Z,15.51
2018-04-15T01:42:46.648Z,15.53
2018-04-15T01:43:47.604Z,15.39
2018-04-15T01:44:47.259Z,15.46
2018-04-15T01:45:47.165Z,15.53
2018-04-15T01:46:47.459Z,15.49
2018-04-15T01:47:47.461Z,15.43
2018-04-15T01:48:47.841Z,15.53
2018-04-15T01:49:47.935Z,15.47
2018-04-15T01:50:47.975Z,15.53
2018-04-15T01:51:48.510Z,15.44
2018-04-15T01:52:48.299Z,15.41
2018-04-15T01:53:48.574Z,15.53
2018-04-15T01:54:48.770Z,15.41
2018-04-15T01:55:49.739Z,15.41
2018-04-15T01:59:53.231Z,15.54
2018-04-15T02:00:52.520Z,15.57
2018-04-15T02:01:52.686Z,15.59
2018-04-15T02:02:52.855Z,15.54
2018-04-15T02:03:53.023Z,15.71
2018-04-15T02:04:53.193Z,15.74
2018-04-15T02:05:53.358Z,15.80
2018-04-15T02:06:53.531Z,15.82
2018-04-15T02:07:53.697Z,15.80
2018-04-15T02:08:53.860Z,15.71
2018-04-15T02:09:54.028Z,15.76
2018-04-15T02:10:54.201Z,15.71
2018-04-15T02:11:54.379Z,15.68
2018-04-15T02:12:54.541Z,15.68
2018-04-15T02:13:54.708Z,15.60
2018-04-15T02:14:54.886Z,15.57
2018-04-15T02:15:55.062Z,15.62
2018-04-15T02:16:55.233Z,15.71
2018-04-15T02:17:55.405Z,15.56
2018-04-15T02:18:55.575Z,15.62
2018-04-15T02:19:55.745Z,15.64
2018-04-15T02:20:55.912Z,15.64
2018-04-15T02:21:56.082Z,15.68
2018-04-15T02:22:56.250Z,15.65
2018-04-15T02:23:56.412Z,15.60
2018-04-15T02:24:56.585Z,15.59
2018-04-15T02:25:56.755Z,15.65
2018-04-15T02:26:56.932Z,15.54
2018-04-15T02:27:57.105Z,15.49
2018-04-15T02:28:57.273Z,15.57
2018-04-15T02:29:57.445Z,15.43
2018-04-15T02:30:57.609Z,15.31
2018-04-15T02:31:57.780Z,15.39
2018-04-15T02:32:57.947Z,15.36
2018-04-15T02:33:58.118Z,15.23
2018-04-15T02:34:58.283Z,15.25
2018-04-15T02:35:58.453Z,15.20
2018-04-15T02:36:58.629Z,15.17
2018-04-15T02:37:58.794Z,15.03
2018-04-15T02:38:58.960Z,15.06
2018-04-15T02:39:59.152Z,15.02
2018-04-15T02:40:59.305Z,14.94
2018-04-15T02:41:59.467Z,15.02
2018-04-15T02:42:59.635Z,15.07
2018-04-15T02:43:59.801Z,15.03
2018-04-15T02:44:59.983Z,15.11
2018-04-15T02:46:00.127Z,15.09
2018-04-15T02:47:00.319Z,14.96
2018-04-15T02:48:00.481Z,15.09
2018-04-15T02:49:00.648Z,15.01
2018-04-15T02:50:00.816Z,15.01
2018-04-15T02:51:01.001Z,15.02
2018-04-15T02:52:01.164Z,15.06
2018-04-15T02:53:01.332Z,15.10
2018-04-15T02:54:01.504Z,15.03
2018-04-15T02:55:01.678Z,15.07
2018-04-15T02:56:01.842Z,14.98
2018-04-15T02:57:02.018Z,15.01
2018-04-15T02:58:02.188Z,15.13
2018-04-15T02:59:02.362Z,15.01
2018-04-15T03:00:02.531Z,15.17
2018-04-15T03:01:02.690Z,15.11
2018-04-15T03:02:02.858Z,14.99
2018-04-15T03:03:03.029Z,15.02
2018-04-15T03:04:03.197Z,15.06
2018-04-15T03:05:03.361Z,15.03
2018-04-15T03:06:03.531Z,15.02
2018-04-15T03:07:03.702Z,15.06
2018-04-15T03:08:03.863Z,14.99
2018-04-15T03:09:04.031Z,15.06
2018-04-15T03:10:04.194Z,15.14
2018-04-15T03:11:04.372Z,15.09
2018-04-15T03:12:04.544Z,15.03
2018-04-15T03:13:04.708Z,15.06
2018-04-15T03:14:04.879Z,15.03
2018-04-15T03:15:05.052Z,15.01
2018-04-15T03:16:05.214Z,15.03
2018-04-15T03:17:05.397Z,15.01
2018-04-15T03:18:05.559Z,15.06
2018-04-15T03:19:05.731Z,15.01
2018-04-15T03:20:05.895Z,15.01
2018-04-15T03:21:06.075Z,15.02
2018-04-15T03:22:06.244Z,15.03
2018-04-15T03:23:06.412Z,14.99
2018-04-15T03:24:06.579Z,14.95
2018-04-15T03:25:06.743Z,14.91
2018-04-15T03:26:06.909Z,14.96
2018-04-15T03:27:07.088Z,14.91
2018-04-15T03:28:07.267Z,14.92
2018-04-15T03:29:07.433Z,14.81
2018-04-15T03:30:07.601Z,14.75
2018-04-15T03:31:07.767Z,14.84
2018-04-15T03:32:07.936Z,14.75
2018-04-15T03:33:08.108Z,14.68
2018-04-15T03:34:08.274Z,14.84
2018-04-15T03:35:08.446Z,14.86
2018-04-15T03:36:08.612Z,14.84
2018-04-15T03:37:08.780Z,14.86
2018-04-15T03:38:08.953Z,14.81
2018-04-15T03:39:09.127Z,14.88
2018-04-15T03:40:09.288Z,14.83
2018-04-15T03:41:09.457Z,14.84
2018-04-15T03:42:09.621Z,14.84
2018-04-15T03:43:09.787Z,14.84
2018-04-15T03:44:09.958Z,14.83
2018-04-15T03:45:10.124Z,14.86
2018-04-15T03:46:10.303Z,14.83
2018-04-15T03:47:10.473Z,14.86
2018-04-15T03:48:10.648Z,14.81
2018-04-15T03:49:10.810Z,14.89
2018-04-15T03:50:10.976Z,14.81
2018-04-15T03:51:11.143Z,14.88
2018-04-15T03:52:11.307Z,14.83
2018-04-15T03:53:11.484Z,14.75
2018-04-15T03:54:11.656Z,14.73
2018-04-15T03:55:11.838Z,14.68
2018-04-15T03:56:11.987Z,14.73
2018-04-15T03:57:12.154Z,14.75
2018-04-15T03:58:12.327Z,14.70
2018-04-15T03:59:12.492Z,14.69
2018-04-15T04:00:12.656Z,14.77
2018-04-15T04:01:12.822Z,14.84
2018-04-15T04:02:12.999Z,14.86
2018-04-15T04:03:13.205Z,14.84
2018-04-15T04:04:13.314Z,14.77
2018-04-15T04:05:13.488Z,14.75
2018-04-15T04:06:13.653Z,14.80
2018-04-15T04:07:13.819Z,14.78
2018-04-15T04:08:13.990Z,14.69
2018-04-15T04:09:14.151Z,14.69
2018-04-15T04:10:14.317Z,14.65
2018-04-15T04:11:14.490Z,14.69
2018-04-15T04:12:14.659Z,14.70
2018-04-15T04:13:14.834Z,14.64
2018-04-15T04:14:15.011Z,14.73
2018-04-15T04:15:15.188Z,14.69
2018-04-15T04:16:15.353Z,14.65
2018-04-15T04:17:15.547Z,14.69
2018-04-15T04:18:15.704Z,14.68
2018-04-15T04:19:15.872Z,14.62
2018-04-15T04:20:16.041Z,14.60
2018-04-15T04:21:16.209Z,14.60
2018-04-15T04:22:16.372Z,14.62
2018-04-15T04:23:16.543Z,14.62
2018-04-15T04:24:16.709Z,14.57
2018-04-15T04:25:16.884Z,14.60
2018-04-15T04:26:17.052Z,14.62
2018-04-15T04:27:17.217Z,14.58
2018-04-15T04:28:17.385Z,14.60
2018-04-15T04:29:17.556Z,14.57
2018-04-15T04:30:17.731Z,14.57
2018-04-15T04:31:17.896Z,14.60
2018-04-15T04:32:18.059Z,14.57
2018-04-15T04:33:18.222Z,14.54
2018-04-15T04:34:18.389Z,14.54
2018-04-15T04:35:18.562Z,14.55
2018-04-15T04:36:18.970Z,14.58
2018-04-15T04:37:18.859Z,14.60
2018-04-15T04:38:19.035Z,14.58
2018-04-15T04:39:19.200Z,14.60
2018-04-15T04:40:19.375Z,14.62
2018-04-15T04:41:19.542Z,14.55
2018-04-15T04:42:19.709Z,14.58
2018-04-15T04:43:19.875Z,14.57
2018-04-15T04:44:20.042Z,14.61
2018-04-15T04:45:20.210Z,14.57
2018-04-15T04:46:20.371Z,14.55
2018-04-15T04:47:20.535Z,14.60
2018-04-15T04:48:20.701Z,14.46
2018-04-15T04:49:22.483Z,14.45
2018-04-15T04:50:21.067Z,14.54
2018-04-15T04:51:21.236Z,14.61
2018-04-15T04:52:21.408Z,14.57
2018-04-15T04:53:21.575Z,14.64
2018-04-15T04:54:21.747Z,14.65
2018-04-15T04:55:21.912Z,14.68
2018-04-15T04:56:22.088Z,14.73
2018-04-15T04:57:22.253Z,14.72
2018-04-15T04:58:22.424Z,14.69
2018-04-15T04:59:22.595Z,14.72
2018-04-15T05:00:22.771Z,14.75
2018-04-15T05:01:22.935Z,14.77
2018-04-15T05:02:23.108Z,14.86
2018-04-15T05:03:23.279Z,14.92
2018-04-15T05:04:23.458Z,14.91
2018-04-15T05:05:23.621Z,14.89
2018-04-15T05:06:23.787Z,14.92
2018-04-15T05:07:23.961Z,14.88
2018-04-15T05:08:24.123Z,15.02
2018-04-15T05:09:24.288Z,14.89
2018-04-15T05:10:24.449Z,14.86
2018-04-15T05:11:24.619Z,14.91
2018-04-15T05:12:24.794Z,14.88
2018-04-15T05:13:24.961Z,14.94
2018-04-15T05:14:25.137Z,15.02
2018-04-15T05:15:25.311Z,15.16
2018-04-15T05:16:25.478Z,15.19
2018-04-15T05:17:25.645Z,15.25
2018-04-15T05:18:25.813Z,15.29
2018-04-15T05:19:25.984Z,15.16
2018-04-15T05:20:26.154Z,15.16
2018-04-15T05:21:26.313Z,15.31
2018-04-15T05:22:26.492Z,15.31
2018-04-15T05:23:26.657Z,15.20
2018-04-15T05:24:26.835Z,15.20
2018-04-15T05:25:27.009Z,15.31
2018-04-15T05:26:27.180Z,15.17
2018-04-15T05:27:27.357Z,15.19
2018-04-15T05:28:27.521Z,15.21
2018-04-15T05:29:27.688Z,15.20
2018-04-15T05:30:27.865Z,15.27
2018-04-15T05:31:28.036Z,15.25
2018-04-15T05:32:28.198Z,15.39
2018-04-15T05:33:28.374Z,15.34
2018-04-15T05:34:28.538Z,15.38
2018-04-15T05:35:28.708Z,15.43
2018-04-15T05:36:28.883Z,15.43
2018-04-15T05:37:29.084Z,15.51
2018-04-15T05:38:29.211Z,15.49
2018-04-15T05:39:29.377Z,15.59
2018-04-15T05:40:29.552Z,15.50
2018-04-15T05:41:29.729Z,15.60
2018-04-15T05:42:29.898Z,15.64
2018-04-15T05:43:30.069Z,15.60
2018-04-15T05:44:30.281Z,15.53
2018-04-15T05:45:30.421Z,15.59
2018-04-15T05:46:30.588Z,15.65
2018-04-15T05:47:31.705Z,15.68
2018-04-15T05:48:30.942Z,15.67
2018-04-15T05:49:31.106Z,15.57
2018-04-15T05:50:31.272Z,15.54
2018-04-15T05:51:31.441Z,15.62
2018-04-15T05:52:31.612Z,15.56
2018-04-15T05:53:31.781Z,15.51
2018-04-15T05:54:31.949Z,15.44
2018-04-15T05:55:32.119Z,15.47
2018-04-15T05:56:32.296Z,15.47
2018-04-15T05:57:32.468Z,15.50
2018-04-15T05:58:32.638Z,15.47
2018-04-15T05:59:32.824Z,15.51
2018-04-15T06:00:32.968Z,15.49
2018-04-15T06:01:33.711Z,15.49
2018-04-15T06:02:33.327Z,15.46
2018-04-15T06:03:33.488Z,15.47
2018-04-15T06:04:33.664Z,15.57
2018-04-15T06:05:34.713Z,15.65
2018-04-15T06:06:34.000Z,15.64
2018-04-15T06:07:34.173Z,15.60
2018-04-15T06:08:34.352Z,15.49
2018-04-15T06:09:34.522Z,15.46
2018-04-15T06:10:34.687Z,15.43
2018-04-15T06:11:34.852Z,15.47
2018-04-15T06:12:35.720Z,15.46
2018-04-15T06:13:35.194Z,15.59
2018-04-15T06:14:35.359Z,15.65
2018-04-15T06:15:35.533Z,15.69
2018-04-15T06:16:35.707Z,15.59
2018-04-15T06:17:35.882Z,15.56
2018-04-15T06:18:36.048Z,15.65
2018-04-15T06:19:37.221Z,15.69
2018-04-15T06:20:37.213Z,15.76
2018-04-15T06:21:37.211Z,15.84
2018-04-15T06:22:36.709Z,15.74
2018-04-15T06:23:36.875Z,15.64
2018-04-15T06:24:37.787Z,15.60
2018-04-15T06:25:37.235Z,15.59
2018-04-15T06:26:37.385Z,15.60
2018-04-15T06:27:37.558Z,15.64
2018-04-15T06:28:37.730Z,15.71
2018-04-15T06:29:37.905Z,15.75
2018-04-15T06:30:38.076Z,15.68
2018-04-15T06:31:38.406Z,15.74
2018-04-15T06:32:38.424Z,15.60
2018-04-15T06:33:38.594Z,15.74
2018-04-15T06:34:38.883Z,15.83
2018-04-15T06:35:38.943Z,15.86
2018-04-15T06:36:39.259Z,16.00
2018-04-15T06:37:39.238Z,15.97
2018-04-15T06:38:39.573Z,16.00
2018-04-15T06:39:39.608Z,15.80
2018-04-15T06:40:39.724Z,15.92
2018-04-15T06:41:39.995Z,16.12
2018-04-15T06:42:40.310Z,16.02
2018-04-15T06:43:40.371Z,16.08
2018-04-15T06:44:40.535Z,16.09
2018-04-15T06:45:40.705Z,16.12
2018-04-15T06:46:40.876Z,16.34
2018-04-15T06:47:41.044Z,16.48
2018-04-15T06:48:41.219Z,16.42
2018-04-15T06:49:41.386Z,16.48
2018-04-15T06:50:41.566Z,16.61
2018-04-15T06:51:42.218Z,16.50
2018-04-15T06:52:43.258Z,16.56
2018-04-15T06:53:42.071Z,16.71
2018-04-15T06:54:42.239Z,16.82
2018-04-15T06:55:42.435Z,16.82
2018-04-15T06:56:42.580Z,16.91
2018-04-15T06:57:42.848Z,16.79
2018-04-15T06:58:42.878Z,16.94
2018-04-15T06:59:43.046Z,16.73
2018-04-15T07:00:43.217Z,16.79
2018-04-15T07:01:44.233Z,16.78
2018-04-15T07:02:43.627Z,16.82
2018-04-15T07:03:43.658Z,16.93
2018-04-15T07:04:43.835Z,16.93
2018-04-15T07:05:44.007Z,16.71
2018-04-15T07:06:45.227Z,16.88
2018-04-15T07:07:44.319Z,16.96
2018-04-15T07:08:44.523Z,16.78
2018-04-15T07:09:45.306Z,16.78
2018-04-15T07:10:45.732Z,16.78
2018-04-15T07:11:45.739Z,16.81
2018-04-15T07:12:46.907Z,16.82
2018-04-15T07:13:45.332Z,16.85
2018-04-15T07:14:45.510Z,16.81
2018-04-15T07:15:46.220Z,16.88
2018-04-15T07:16:46.743Z,16.81
2018-04-15T07:17:46.725Z,16.83
2018-04-15T07:18:46.721Z,16.71
2018-04-15T07:19:46.405Z,16.79
2018-04-15T07:20:47.736Z,16.91
2018-04-15T07:21:47.294Z,16.96
2018-04-15T07:22:46.943Z,17.00
2018-04-15T07:23:47.117Z,16.97
2018-04-15T07:24:49.229Z,17.00
2018-04-15T07:25:49.725Z,17.06
2018-04-15T07:26:47.667Z,17.04
2018-04-15T07:27:49.245Z,17.01
2018-04-15T07:28:48.729Z,16.88
2018-04-15T07:29:49.228Z,16.81
2018-04-15T07:30:48.525Z,16.78
2018-04-15T07:31:48.432Z,16.89
2018-04-15T07:32:48.783Z,16.75
2018-04-15T07:33:48.754Z,16.96
2018-04-15T07:34:48.940Z,16.85
2018-04-15T07:35:49.118Z,17.01
2018-04-15T07:36:49.310Z,17.11
2018-04-15T07:37:49.505Z,17.31
2018-04-15T07:38:49.675Z,17.43
2018-04-15T07:39:50.845Z,17.64
2018-04-15T07:40:50.138Z,17.77
2018-04-15T07:41:50.241Z,17.78
2018-04-15T07:42:50.487Z,17.96
2018-04-15T07:43:50.707Z,17.96
2018-04-15T07:44:51.276Z,18.15
2018-04-15T07:45:50.836Z,18.21
2018-04-15T07:46:51.142Z,18.26
2018-04-15T07:47:51.127Z,18.37
2018-04-15T07:48:51.299Z,18.30
2018-04-15T07:49:51.618Z,18.30
2018-04-15T07:50:51.770Z,18.33
2018-04-15T07:51:51.820Z,18.32
2018-04-15T07:52:51.991Z,18.33
2018-04-15T07:53:52.345Z,18.30
2018-04-15T07:54:52.394Z,18.36
2018-04-15T07:55:52.596Z,18.44
2018-04-15T07:56:52.802Z,18.42
2018-04-15T07:57:52.874Z,18.39
2018-04-15T07:58:53.019Z,18.50
2018-04-15T07:59:53.372Z,18.44
2018-04-15T08:00:53.427Z,18.60
2018-04-15T08:01:53.810Z,18.60
2018-04-15T08:02:54.220Z,18.67
2018-04-15T08:03:54.136Z,18.65
2018-04-15T08:04:54.411Z,18.72
2018-04-15T08:05:55.216Z,18.76
2018-04-15T08:06:54.665Z,18.76
2018-04-15T08:07:54.798Z,18.80
2018-04-15T08:08:54.770Z,18.76
2018-04-15T08:09:55.972Z,18.75
2018-04-15T08:10:55.089Z,18.72
2018-04-15T08:11:55.361Z,18.67
2018-04-15T08:12:55.559Z,18.69
2018-04-15T08:13:55.656Z,18.75
2018-04-15T08:14:55.856Z,18.65
2018-04-15T08:15:57.473Z,18.65
2018-04-15T08:16:56.120Z,18.63
2018-04-15T08:17:56.208Z,18.73
2018-04-15T08:18:56.393Z,18.62
2018-04-15T08:19:56.607Z,18.67
2018-04-15T08:20:57.884Z,18.72
2018-04-15T08:21:57.850Z,18.76
2018-04-15T08:22:57.200Z,18.80
2018-04-15T08:23:57.307Z,18.84
2018-04-15T08:24:57.693Z,18.87
2018-04-15T08:25:58.064Z,18.85
2018-04-15T08:26:58.074Z,18.87
2018-04-15T08:27:58.111Z,18.90
2018-04-15T08:28:58.379Z,19.06
2018-04-15T08:29:58.566Z,18.99
2018-04-15T08:30:59.421Z,19.16
2018-04-15T08:31:58.785Z,19.16
2018-04-15T08:32:58.859Z,19.19
2018-04-15T08:33:59.090Z,19.32
2018-04-15T08:34:59.195Z,19.46
2018-04-15T08:35:59.313Z,19.48
2018-04-15T08:36:59.657Z,19.76
2018-04-15T08:37:59.780Z,19.91
2018-04-15T08:39:00.130Z,20.21
2018-04-15T08:40:00.021Z,20.42
2018-04-15T08:41:00.197Z,20.64
2018-04-15T08:42:00.447Z,20.94
2018-04-15T08:43:01.424Z,21.22
2018-04-15T08:44:00.655Z,21.34
2018-04-15T08:45:00.899Z,21.64
2018-04-15T08:46:01.742Z,21.65
2018-04-15T08:47:01.493Z,21.67
2018-04-15T08:48:01.435Z,21.83
2018-04-15T08:49:01.608Z,22.21
2018-04-15T08:50:01.791Z,22.57
2018-04-15T08:51:02.221Z,22.73
2018-04-15T08:52:02.190Z,23.10
2018-04-15T08:53:02.552Z,23.10
2018-04-15T08:54:02.594Z,23.33
2018-04-15T08:55:02.786Z,23.63
2018-04-15T08:56:02.969Z,23.63
2018-04-15T08:57:03.184Z,23.61
2018-04-15T08:58:03.317Z,23.51
2018-04-15T08:59:03.502Z,23.50
2018-04-15T09:00:03.816Z,23.80
2018-04-15T09:01:03.991Z,24.62
2018-04-15T09:02:04.077Z,24.96
2018-04-15T09:03:04.363Z,25.36
2018-04-15T09:04:04.424Z,25.39
2018-04-15T09:05:04.934Z,25.52
2018-04-15T09:06:04.781Z,26.01
2018-04-15T09:07:04.960Z,26.50
2018-04-15T09:08:05.211Z,26.13
2018-04-15T09:09:05.489Z,26.75
2018-04-15T09:10:05.622Z,26.57
2018-04-15T09:11:05.764Z,27.12
2018-04-15T09:12:06.080Z,26.92
2018-04-15T09:13:06.102Z,27.18
2018-04-15T09:14:06.296Z,27.72
2018-04-15T09:15:06.427Z,28.44
2018-04-15T09:16:07.286Z,28.70
2018-04-15T09:17:06.708Z,29.34
2018-04-15T09:18:06.946Z,29.90
2018-04-15T09:19:07.140Z,30.94
2018-04-15T09:20:07.178Z,31.84
2018-04-15T09:21:07.249Z,32.41
2018-04-15T09:22:07.465Z,32.50
2018-04-15T09:23:07.929Z,32.75
2018-04-15T09:24:09.054Z,32.43
2018-04-15T09:25:08.354Z,31.89
2018-04-15T09:26:08.300Z,30.35
2018-04-15T09:27:08.513Z,30.22
2018-04-15T09:28:08.789Z,30.86
2018-04-15T09:29:08.876Z,32.04
2018-04-15T09:30:09.248Z,33.06
2018-04-15T09:31:09.456Z,33.88
2018-04-15T09:32:09.445Z,33.49
2018-04-15T09:33:10.006Z,34.40
2018-04-15T09:34:10.134Z,35.26
2018-04-15T09:35:10.234Z,35.18
2018-04-15T09:36:10.576Z,35.74
2018-04-15T09:37:10.328Z,35.99
2018-04-15T09:38:11.001Z,36.44
2018-04-15T09:39:10.752Z,36.54
2018-04-15T09:40:11.008Z,36.85
2018-04-15T09:41:11.209Z,37.39
2018-04-15T09:42:11.716Z,37.36
2018-04-15T09:43:12.322Z,37.17
2018-04-15T09:44:11.847Z,37.70
2018-04-15T09:45:12.369Z,37.63
2018-04-15T09:46:12.229Z,36.83
2018-04-15T09:47:12.462Z,36.16
2018-04-15T09:48:13.262Z,35.80
2018-04-15T09:49:12.876Z,35.68
2018-04-15T09:50:13.910Z,35.44
2018-04-15T09:51:13.792Z,35.36
2018-04-15T09:52:14.281Z,35.19
2018-04-15T09:53:14.494Z,34.82
2018-04-15T09:54:13.870Z,33.91
2018-04-15T09:55:14.028Z,33.98
2018-04-15T09:56:14.248Z,35.04
2018-04-15T09:57:14.475Z,35.34
2018-04-15T09:58:16.045Z,34.77
2018-04-15T09:59:15.043Z,35.85
2018-04-15T10:00:15.147Z,36.78
2018-04-15T10:01:15.453Z,36.91
2018-04-15T10:02:15.816Z,36.65
2018-04-15T10:03:16.768Z,37.10
2018-04-15T10:04:16.014Z,37.70
2018-04-15T10:05:16.695Z,37.93
2018-04-15T10:06:17.396Z,38.23
2018-04-15T10:07:16.741Z,38.35
2018-04-15T10:08:16.848Z,38.63
2018-04-15T10:09:17.124Z,38.54
2018-04-15T10:10:17.295Z,38.79
2018-04-15T10:11:18.365Z,38.54
2018-04-15T10:12:18.285Z,38.63
2018-04-15T10:13:17.970Z,38.83
2018-04-15T10:14:18.172Z,39.36
2018-04-15T10:15:19.265Z,39.41
2018-04-15T10:16:18.796Z,39.64
2018-04-15T10:17:19.253Z,40.03
2018-04-15T10:18:19.764Z,40.10
2018-04-15T10:19:19.155Z,40.16
2018-04-15T10:20:19.635Z,39.96
2018-04-15T10:21:20.375Z,40.00
2018-04-15T10:22:19.886Z,40.08
2018-04-15T10:23:20.845Z,40.18
2018-04-15T10:24:20.095Z,40.25
2018-04-15T10:25:20.626Z,40.43
2018-04-15T10:26:20.824Z,40.57
2018-04-15T10:27:21.046Z,40.50
2018-04-15T10:28:22.431Z,40.82
2018-04-15T10:29:22.116Z,40.89
2018-04-15T10:30:21.433Z,40.91
2018-04-15T10:31:22.671Z,40.91
2018-04-15T10:32:22.729Z,40.79
2018-04-15T10:33:22.079Z,40.91
2018-04-15T10:34:22.129Z,41.08
2018-04-15T10:35:22.538Z,41.26
2018-04-15T10:36:22.809Z,41.29
2018-04-15T10:37:22.523Z,41.13
2018-04-15T10:38:22.711Z,41.20
2018-04-15T10:39:23.785Z,41.41
2018-04-15T10:40:23.795Z,41.36
2018-04-15T10:41:24.347Z,41.11
2018-04-15T10:42:23.588Z,41.32
2018-04-15T10:43:24.134Z,41.49
2018-04-15T10:44:25.169Z,41.52
2018-04-15T10:45:24.326Z,41.60
2018-04-15T10:46:24.559Z,41.47
2018-04-15T10:47:24.683Z,41.25
2018-04-15T10:48:25.261Z,40.46
2018-04-15T10:49:25.415Z,40.10
2018-04-15T10:50:25.554Z,39.54
2018-04-15T10:51:26.421Z,39.79
2018-04-15T10:52:26.378Z,40.10
2018-04-15T10:53:25.979Z,40.27
2018-04-15T10:54:26.480Z,40.55
2018-04-15T10:55:26.389Z,39.45
2018-04-15T10:56:27.483Z,38.79
2018-04-15T10:57:27.131Z,38.20
2018-04-15T10:58:27.529Z,37.86
2018-04-15T10:59:27.875Z,37.57
2018-04-15T11:00:27.407Z,37.55
2018-04-15T11:01:27.647Z,37.34
2018-04-15T11:02:49.771Z,37.10
2018-04-15T11:03:28.105Z,36.75
2018-04-15T11:04:28.354Z,36.99
2018-04-15T11:05:28.567Z,36.64
2018-04-15T11:06:29.077Z,36.53
2018-04-15T11:07:29.765Z,36.23
2018-04-15T11:08:29.284Z,35.71
2018-04-15T11:09:29.489Z,34.75
2018-04-15T11:10:29.584Z,34.81
2018-04-15T11:11:30.213Z,34.30
2018-04-15T11:12:29.950Z,33.72
2018-04-15T11:13:30.170Z,33.76
2018-04-15T11:14:30.761Z,33.78
2018-04-15T11:15:30.530Z,33.82
2018-04-15T11:16:30.731Z,33.57
2018-04-15T11:17:31.282Z,33.31
2018-04-15T11:18:31.263Z,32.45
2018-04-15T11:19:31.210Z,31.81
2018-04-15T11:20:31.742Z,30.77
2018-04-15T11:21:32.018Z,30.43
2018-04-15T11:22:32.085Z,30.23
2018-04-15T11:23:32.355Z,30.37
2018-04-15T11:24:32.509Z,30.46
2018-04-15T11:25:32.492Z,30.35
2018-04-15T11:26:32.760Z,30.32
2018-04-15T11:27:33.007Z,29.52
2018-04-15T11:28:33.064Z,29.19
2018-04-15T11:29:33.516Z,28.78
2018-04-15T11:30:33.650Z,28.48
2018-04-15T11:31:33.946Z,28.62
2018-04-15T11:32:33.989Z,28.77
2018-04-15T11:33:34.930Z,28.88
2018-04-15T11:34:34.480Z,28.73
2018-04-15T11:35:34.453Z,28.49
2018-04-15T11:36:34.898Z,28.61
2018-04-15T11:37:35.900Z,28.80
2018-04-15T11:38:35.424Z,28.73
2018-04-15T11:39:35.406Z,28.48
2018-04-15T11:40:35.551Z,28.30
2018-04-15T11:41:35.677Z,27.74
2018-04-15T11:42:36.157Z,27.77
2018-04-15T11:43:36.285Z,28.03
2018-04-15T11:44:36.899Z,28.25
2018-04-15T11:45:36.399Z,28.31
2018-04-15T11:46:36.975Z,28.51
2018-04-15T11:47:37.126Z,28.58
2018-04-15T11:48:36.951Z,28.59
2018-04-15T11:49:37.219Z,28.66
2018-04-15T11:50:37.545Z,28.73
2018-04-15T11:51:38.520Z,28.55
2018-04-15T11:52:37.602Z,28.61
2018-04-15T11:53:37.910Z,28.58
2018-04-15T11:54:38.782Z,28.61
2018-04-15T11:55:38.773Z,28.58
2018-04-15T11:56:38.396Z,28.58
2018-04-15T11:57:38.604Z,28.62
2018-04-15T11:58:38.925Z,28.67
2018-04-15T11:59:39.792Z,28.73
2018-04-15T12:00:39.160Z,28.58
2018-04-15T12:01:39.381Z,28.92
2018-04-15T12:02:40.263Z,29.19
2018-04-15T12:03:39.983Z,29.04
2018-04-15T12:04:40.790Z,29.00
2018-04-15T12:05:40.211Z,28.58
2018-04-15T12:06:41.288Z,28.41
2018-04-15T12:07:40.612Z,29.11
2018-04-15T12:08:40.769Z,30.19
2018-04-15T12:09:41.789Z,31.06
2018-04-15T12:10:42.766Z,31.47
2018-04-15T12:11:42.283Z,30.75
2018-04-15T12:12:41.548Z,30.51
2018-04-15T12:13:42.263Z,31.39
2018-04-15T12:14:42.111Z,31.95
2018-04-15T12:15:42.229Z,31.41
2018-04-15T12:16:42.430Z,31.20
2018-04-15T12:17:43.278Z,30.31
2018-04-15T12:18:43.776Z,29.30
2018-04-15T12:19:42.997Z,29.12
2018-04-15T12:20:43.184Z,28.85
2018-04-15T12:21:43.379Z,28.68
2018-04-15T12:22:43.656Z,27.75
2018-04-15T12:23:44.280Z,27.57
2018-04-15T12:24:44.778Z,27.78
2018-04-15T12:25:44.177Z,27.70
2018-04-15T12:26:44.401Z,27.74
2018-04-15T12:27:44.554Z,27.85
2018-04-15T12:28:44.753Z,27.84
2018-04-15T12:29:44.921Z,27.77
2018-04-15T12:30:45.300Z,27.65
2018-04-15T12:31:45.306Z,27.19
2018-04-15T12:32:45.476Z,27.14
2018-04-15T12:33:45.694Z,26.69
2018-04-15T12:34:45.886Z,26.82
2018-04-15T12:35:46.122Z,26.60
2018-04-15T12:36:47.295Z,26.76
2018-04-15T12:37:46.436Z,26.91
2018-04-15T12:38:46.614Z,26.91
2018-04-15T12:39:46.876Z,26.33
2018-04-15T12:40:46.948Z,26.43
2018-04-15T12:41:47.785Z,26.75
2018-04-15T12:42:47.349Z,26.87
2018-04-15T12:43:47.560Z,26.85
2018-04-15T12:44:47.749Z,26.92
2018-04-15T12:45:47.923Z,26.91
2018-04-15T12:46:48.162Z,26.58
2018-04-15T12:47:48.319Z,26.47
2018-04-15T12:48:49.310Z,26.50
2018-04-15T12:49:48.703Z,26.54
2018-04-15T12:50:48.899Z,26.55
2018-04-15T12:51:49.798Z,26.69
2018-04-15T12:52:49.793Z,26.58
2018-04-15T12:53:50.281Z,26.72
2018-04-15T12:54:49.653Z,26.65
2018-04-15T12:55:50.777Z,26.57
2018-04-15T12:56:50.026Z,26.54
2018-04-15T12:57:50.340Z,26.47